createdAt,value
2022-11-05T00:01:51.885Z,7.20
2022-11-05T00:04:38.996Z,8.77
2022-11-05T00:07:33.864Z,11.70
2022-11-05T00:10:12.571Z,8.07
2022-11-05T00:13:00.454Z,14.80
2022-11-05T00:15:46.685Z,13.38
2022-11-05T00:18:15.957Z,9.35
2022-11-05T00:20:43.792Z,10.30
2022-11-05T00:23:32.811Z,12.45
2022-11-05T00:26:07.662Z,11.48
2022-11-05T00:28:37.683Z,11.30
2022-11-05T00:31:09.938Z,10.30
2022-11-05T00:33:37.860Z,12.02
2022-11-05T00:36:06.368Z,9.10
2022-11-05T00:38:34.332Z,9.20
2022-11-05T00:41:02.532Z,14.15
2022-11-05T00:43:49.352Z,7.80
2022-11-05T00:46:17.051Z,8.73
2022-11-05T00:49:03.544Z,7.43
2022-11-05T00:51:35.048Z,9.45
2022-11-05T00:54:03.945Z,7.00
2022-11-05T00:56:32.846Z,15.52
2022-11-05T00:59:03.093Z,9.23
2022-11-05T01:03:38.827Z,10.40
2022-11-05T01:06:09.059Z,11.82
2022-11-05T01:08:37.691Z,8.60
2022-11-05T01:11:12.648Z,11.57
2022-11-05T01:13:40.854Z,8.07
2022-11-05T01:16:09.991Z,8.43
2022-11-05T01:18:39.039Z,8.52
2022-11-05T01:21:15.179Z,15.18
2022-11-05T01:23:42.959Z,12.32
2022-11-05T01:26:11.011Z,10.20
2022-11-05T01:28:38.711Z,12.73
2022-11-05T01:31:06.632Z,10.50
2022-11-05T01:33:34.351Z,13.38
2022-11-05T01:36:07.738Z,10.20
2022-11-05T01:38:35.612Z,7.82
2022-11-05T01:41:03.286Z,9.82
2022-11-05T01:43:48.091Z,11.15
2022-11-05T01:46:17.252Z,8.45
2022-11-05T01:48:45.092Z,18.38
2022-11-05T01:51:14.219Z,11.27
2022-11-05T01:53:42.012Z,13.15
2022-11-05T01:56:15.550Z,9.68
2022-11-05T01:58:56.966Z,13.05
2022-11-05T02:01:25.533Z,10.18
2022-11-05T02:03:56.313Z,10.20
2022-11-05T02:06:24.193Z,11.73
2022-11-05T02:08:58.728Z,9.05
2022-11-05T02:11:26.505Z,7.15
2022-11-05T02:13:54.115Z,9.23
2022-11-05T02:16:24.249Z,10.52
2022-11-05T02:18:58.790Z,6.95
2022-11-05T02:21:33.033Z,6.90
2022-11-05T02:24:10.744Z,5.75
2022-11-05T02:26:38.328Z,4.63
2022-11-05T02:29:06.488Z,5.50
2022-11-05T02:31:34.334Z,5.78
2022-11-05T02:34:12.506Z,5.85
2022-11-05T02:36:43.035Z,6.88
2022-11-05T02:39:14.208Z,4.05
2022-11-05T02:41:42.046Z,5.05
2022-11-05T02:44:19.313Z,5.03
2022-11-05T02:47:05.017Z,4.95
2022-11-05T02:49:46.409Z,7.80
2022-11-05T02:52:21.236Z,5.80
2022-11-05T02:55:18.603Z,5.32
2022-11-05T02:57:47.637Z,4.03
2022-11-05T03:00:36.753Z,5.75
2022-11-05T03:03:06.046Z,6.47
2022-11-05T03:06:12.516Z,5.72
2022-11-05T03:09:02.121Z,5.70
2022-11-05T03:11:34.998Z,4.93
2022-11-05T03:14:27.530Z,8.30
2022-11-05T03:17:07.864Z,3.33
2022-11-05T03:19:43.169Z,7.47
2022-11-05T03:22:19.532Z,4.80
2022-11-05T03:24:51.696Z,4.82
2022-11-05T03:27:31.943Z,4.03
2022-11-05T03:30:06.739Z,6.18
2022-11-05T03:32:39.300Z,5.95
2022-11-05T03:35:16.590Z,2.50
2022-11-05T03:37:46.158Z,4.90
2022-11-05T03:40:18.275Z,9.23
2022-11-05T03:42:50.608Z,5.40
2022-11-05T03:45:25.538Z,6.25
2022-11-05T03:47:58.091Z,6.28
2022-11-05T03:50:41.609Z,5.22
2022-11-05T03:53:18.811Z,12.70
2022-11-05T03:56:07.089Z,4.45
2022-11-05T03:58:35.857Z,4.70
2022-11-05T04:01:04.383Z,4.10
2022-11-05T04:03:37.306Z,5.00
2022-11-05T04:06:28.893Z,6.13
2022-11-05T04:09:18.273Z,3.60
2022-11-05T04:12:04.309Z,7.18
2022-11-05T04:14:35.774Z,5.85
2022-11-05T04:17:06.672Z,6.43
2022-11-05T04:19:56.895Z,7.13
2022-11-05T04:22:44.497Z,9.95
2022-11-05T04:25:13.360Z,7.07
2022-11-05T04:27:41.257Z,6.28
2022-11-05T04:30:24.718Z,6.20
2022-11-05T04:33:08.960Z,6.57
2022-11-05T04:35:42.097Z,7.30
2022-11-05T04:38:14.939Z,11.82
2022-11-05T04:40:42.951Z,6.47
2022-11-05T04:43:15.303Z,7.28
2022-11-05T04:45:43.651Z,9.00
2022-11-05T04:48:11.596Z,12.00
2022-11-05T04:50:39.464Z,13.43
2022-11-05T04:53:06.879Z,11.52
2022-11-05T04:55:34.687Z,8.90
2022-11-05T04:58:02.249Z,11.38
2022-11-05T05:00:32.080Z,12.05
2022-11-05T05:03:01.129Z,9.48
2022-11-05T05:05:34.116Z,7.65
2022-11-05T05:08:05.540Z,10.48
2022-11-05T05:10:36.639Z,13.82
2022-11-05T05:13:04.118Z,12.70
2022-11-05T05:15:36.054Z,8.30
2022-11-05T05:18:04.242Z,14.93
2022-11-05T05:20:50.720Z,14.10
2022-11-05T05:23:18.445Z,10.18
2022-11-05T05:25:45.793Z,12.85
2022-11-05T05:28:13.013Z,15.18
2022-11-05T05:30:40.307Z,19.27
2022-11-05T05:33:07.464Z,21.98
2022-11-05T05:35:36.189Z,17.80
2022-11-05T05:38:03.534Z,21.55
2022-11-05T05:40:33.576Z,21.73
2022-11-05T05:43:03.193Z,31.42
2022-11-05T05:45:35.533Z,18.77
2022-11-05T05:48:04.252Z,23.83
2022-11-05T05:50:34.719Z,28.35
2022-11-05T05:53:07.946Z,28.75
2022-11-05T05:55:35.773Z,31.67
2022-11-05T05:58:03.052Z,27.75
2022-11-05T06:00:31.769Z,22.17
2022-11-05T06:02:59.094Z,26.05
2022-11-05T06:05:34.206Z,30.15
2022-11-05T06:08:03.369Z,29.33
2022-11-05T06:10:36.103Z,22.13
2022-11-05T06:13:04.940Z,27.13
2022-11-05T06:15:35.836Z,25.10
2022-11-05T06:18:04.252Z,23.50
2022-11-05T06:20:35.154Z,26.52
2022-11-05T06:23:06.676Z,21.90
2022-11-05T06:25:39.982Z,25.92
2022-11-05T06:28:09.197Z,29.33
2022-11-05T06:30:38.674Z,25.77
2022-11-05T06:33:06.958Z,26.55
2022-11-05T06:35:34.763Z,25.50
2022-11-05T06:38:03.972Z,28.30
2022-11-05T06:40:32.147Z,27.48
2022-11-05T06:43:02.411Z,30.70
2022-11-05T06:45:37.490Z,24.65
2022-11-05T06:48:07.838Z,24.55
2022-11-05T06:50:36.422Z,31.30
2022-11-05T06:53:05.692Z,23.52
2022-11-05T06:55:39.299Z,26.92
2022-11-05T06:58:07.111Z,32.35
2022-11-05T07:00:34.707Z,29.17
2022-11-05T07:03:06.055Z,27.67
2022-11-05T07:05:38.581Z,25.70
2022-11-05T07:08:06.645Z,22.92
2022-11-05T07:10:34.107Z,28.33
2022-11-05T07:13:06.746Z,26.40
2022-11-05T07:15:39.802Z,29.15
2022-11-05T07:18:10.585Z,27.35
2022-11-05T07:20:38.968Z,30.27
2022-11-05T07:23:14.580Z,26.27
2022-11-05T07:25:46.534Z,23.30
2022-11-05T07:28:14.769Z,27.55
2022-11-05T07:30:42.083Z,26.35
2022-11-05T07:33:10.904Z,23.90
2022-11-05T07:35:40.167Z,26.05
2022-11-05T07:38:08.779Z,29.25
2022-11-05T07:40:36.850Z,22.58
2022-11-05T07:43:04.799Z,22.52
2022-11-05T07:45:37.849Z,28.58
2022-11-05T07:48:05.823Z,27.25
2022-11-05T07:50:37.561Z,30.15
2022-11-05T07:53:13.507Z,30.75
2022-11-05T07:55:42.254Z,27.30
2022-11-05T07:58:11.980Z,32.45
2022-11-05T08:00:40.555Z,29.67
2022-11-05T08:03:12.848Z,28.45
2022-11-05T08:05:44.789Z,32.47
2022-11-05T08:08:14.960Z,29.42
2022-11-05T08:10:44.302Z,30.88
2022-11-05T08:13:12.961Z,27.83
2022-11-05T08:15:42.488Z,33.17
2022-11-05T08:18:15.532Z,31.00
2022-11-05T08:20:44.062Z,30.60
2022-11-05T08:23:12.113Z,31.70
2022-11-05T08:25:40.084Z,35.97
2022-11-05T08:28:10.525Z,31.98
2022-11-05T08:30:38.258Z,32.58
2022-11-05T08:33:08.562Z,33.08
2022-11-05T08:35:41.360Z,35.00
2022-11-05T08:38:10.830Z,40.20
2022-11-05T08:40:38.900Z,33.47
2022-11-05T08:43:10.101Z,32.70
2022-11-05T08:45:39.962Z,30.25
2022-11-05T08:48:12.783Z,38.63
2022-11-05T08:50:40.774Z,29.50
2022-11-05T08:53:10.176Z,25.73
2022-11-05T08:55:40.094Z,24.65
2022-11-05T08:58:15.557Z,26.93
2022-11-05T09:00:44.097Z,33.10
2022-11-05T09:03:12.289Z,22.30
2022-11-05T09:05:41.683Z,25.40
2022-11-05T09:08:15.826Z,17.63
2022-11-05T09:10:44.733Z,21.35
2022-11-05T09:13:18.192Z,24.98
2022-11-05T09:15:47.445Z,20.77
2022-11-05T09:18:16.838Z,18.30
2022-11-05T09:20:45.188Z,16.83
2022-11-05T09:23:16.194Z,17.45
2022-11-05T09:25:44.735Z,20.20
2022-11-05T09:28:16.404Z,16.75
2022-11-05T09:30:48.364Z,16.27
2022-11-05T09:33:16.650Z,17.88
2022-11-05T09:35:44.807Z,18.20
2022-11-05T09:38:14.048Z,14.85
2022-11-05T09:40:51.937Z,17.60
2022-11-05T09:43:21.175Z,17.45
2022-11-05T09:45:51.109Z,18.17
2022-11-05T09:48:20.986Z,18.08
2022-11-05T09:50:49.546Z,15.25
2022-11-05T09:53:18.408Z,17.73
2022-11-05T09:56:04.965Z,15.27
2022-11-05T09:58:41.301Z,17.30
2022-11-05T10:01:12.873Z,15.35
2022-11-05T10:03:44.777Z,15.80
2022-11-05T10:06:15.656Z,20.33
2022-11-05T10:08:44.442Z,20.23
2022-11-05T10:11:21.518Z,16.58
2022-11-05T10:13:56.463Z,17.65
2022-11-05T10:16:34.047Z,16.33
2022-11-05T10:19:10.046Z,17.75
2022-11-05T10:22:04.977Z,17.65
2022-11-05T10:24:28.550Z,17.60
2022-11-05T10:26:56.962Z,13.88
2022-11-05T10:29:30.247Z,16.63
2022-11-05T10:31:58.967Z,13.02
2022-11-05T10:34:35.318Z,16.38
2022-11-05T10:37:03.750Z,16.17
2022-11-05T10:39:32.734Z,20.42
2022-11-05T10:42:19.208Z,17.35
2022-11-05T10:44:56.181Z,13.98
2022-11-05T10:47:33.795Z,17.23
2022-11-05T10:50:12.871Z,14.02
2022-11-05T10:52:44.197Z,14.43
2022-11-05T10:55:16.641Z,14.98
2022-11-05T10:57:44.840Z,12.27
2022-11-05T11:00:15.681Z,12.07
2022-11-05T11:02:43.842Z,14.43
2022-11-05T11:05:12.509Z,15.65
2022-11-05T11:07:40.451Z,12.95
2022-11-05T11:10:19.941Z,15.77
2022-11-05T11:12:49.941Z,14.10
2022-11-05T11:15:24.555Z,14.68
2022-11-05T11:17:52.661Z,10.85
2022-11-05T11:20:23.706Z,17.08
2022-11-05T11:23:02.087Z,20.33
2022-11-05T11:26:07.049Z,11.85
2022-11-05T11:28:38.192Z,12.98
2022-11-05T11:31:08.541Z,17.80
2022-11-05T11:36:04.847Z,9.00
2022-11-05T11:38:37.525Z,13.18
2022-11-05T11:41:23.920Z,13.95
2022-11-05T11:43:54.681Z,13.25
2022-11-05T11:46:22.507Z,15.38
2022-11-05T11:48:51.489Z,12.82
2022-11-05T11:51:40.979Z,14.68
2022-11-05T11:54:19.675Z,15.27
2022-11-05T11:56:50.618Z,15.27
2022-11-05T11:59:40.511Z,11.18
2022-11-05T12:02:14.726Z,20.20
2022-11-05T12:04:58.190Z,19.55
2022-11-05T12:07:45.001Z,15.82
2022-11-05T12:10:12.701Z,15.52
2022-11-05T12:12:42.474Z,15.95
2022-11-05T12:15:13.294Z,14.98
2022-11-05T12:17:44.654Z,12.32
2022-11-05T12:20:22.157Z,15.45
2022-11-05T12:23:05.110Z,12.63
2022-11-05T12:25:44.907Z,12.82
2022-11-05T12:29:12.398Z,16.85
2022-11-05T12:31:32.703Z,16.48
2022-11-05T12:34:19.244Z,20.50
2022-11-05T12:37:14.671Z,12.15
2022-11-05T12:39:44.380Z,14.70
2022-11-05T12:42:31.296Z,17.73
2022-11-05T12:45:02.134Z,15.40
2022-11-05T12:47:34.915Z,11.80
2022-11-05T12:50:21.719Z,13.32
2022-11-05T12:52:53.294Z,16.38
2022-11-05T12:55:25.873Z,16.80
2022-11-05T12:57:57.240Z,12.10
2022-11-05T13:00:25.811Z,13.80
2022-11-05T13:02:56.631Z,15.07
2022-11-05T13:05:45.895Z,20.23
2022-11-05T13:08:13.953Z,19.98
2022-11-05T13:10:50.971Z,17.30
2022-11-05T13:13:38.460Z,17.10
2022-11-05T13:16:24.510Z,14.63
2022-11-05T13:18:55.072Z,14.63
2022-11-05T13:23:55.418Z,15.20
2022-11-05T13:26:26.284Z,14.75
2022-11-05T13:29:01.471Z,20.35
2022-11-05T13:31:33.502Z,18.40
2022-11-05T13:34:03.548Z,14.82
2022-11-05T13:37:16.420Z,16.98
2022-11-05T13:40:04.899Z,18.45
2022-11-05T13:42:56.015Z,18.77
2022-11-05T13:45:39.677Z,14.50
2022-11-05T13:48:16.473Z,13.35
2022-11-05T13:51:04.203Z,18.38
2022-11-05T13:53:41.634Z,11.82
2022-11-05T13:56:22.919Z,18.95
2022-11-05T13:58:53.703Z,15.00
2022-11-05T14:01:39.775Z,15.68
2022-11-05T14:04:18.540Z,12.45
2022-11-05T14:06:47.525Z,13.45
2022-11-05T14:09:20.492Z,11.60
2022-11-05T14:11:53.674Z,10.35
2022-11-05T14:14:30.704Z,17.05
2022-11-05T14:17:07.851Z,16.42
2022-11-05T14:19:55.842Z,11.52
2022-11-05T14:22:31.295Z,9.95
2022-11-05T14:25:23.145Z,8.93
2022-11-05T14:27:55.608Z,14.90
2022-11-05T14:30:41.917Z,15.48
2022-11-05T14:33:19.811Z,16.77
2022-11-05T14:35:48.423Z,12.50
2022-11-05T14:38:19.769Z,14.02
2022-11-05T14:40:48.021Z,12.23
2022-11-05T14:43:15.614Z,9.55
2022-11-05T14:45:56.595Z,14.88
2022-11-05T14:48:34.387Z,13.18
2022-11-05T14:51:03.966Z,10.45
2022-11-05T14:53:39.960Z,13.57
2022-11-05T14:56:13.458Z,13.70
2022-11-05T14:58:42.580Z,13.98
2022-11-05T15:01:31.806Z,13.38
2022-11-05T15:04:25.455Z,12.57
2022-11-05T15:07:06.517Z,9.40
2022-11-05T15:09:52.865Z,11.65
2022-11-05T15:12:36.559Z,13.73
2022-11-05T15:15:25.423Z,9.05
2022-11-05T15:18:17.451Z,13.70
2022-11-05T15:20:50.076Z,12.00
2022-11-05T15:23:19.078Z,11.75
2022-11-05T15:26:00.184Z,16.50
2022-11-05T15:28:33.908Z,14.63
2022-11-05T15:31:15.079Z,12.30
2022-11-05T15:33:44.350Z,13.10
2022-11-05T15:36:13.312Z,10.80
2022-11-05T15:38:51.975Z,9.13
2022-11-05T15:41:34.644Z,8.80
2022-11-05T15:44:02.895Z,12.13
2022-11-05T15:46:31.945Z,12.07
2022-11-05T15:49:02.396Z,12.57
2022-11-05T15:51:31.165Z,9.90
2022-11-05T15:54:29.104Z,13.85
2022-11-05T15:56:57.586Z,12.40
2022-11-05T15:59:26.607Z,12.52
2022-11-05T16:01:54.884Z,13.18
2022-11-05T16:04:27.773Z,12.77
2022-11-05T16:06:58.354Z,15.73
2022-11-05T16:09:27.656Z,9.57
2022-11-05T16:12:14.672Z,12.38
2022-11-05T16:14:42.544Z,15.38
2022-11-05T16:17:21.209Z,8.15
2022-11-05T16:19:52.761Z,10.55
2022-11-05T16:22:27.514Z,13.80
2022-11-05T16:24:55.366Z,12.55
2022-11-05T16:27:23.788Z,11.00
2022-11-05T16:29:53.054Z,14.48
2022-11-05T16:32:30.635Z,8.30
2022-11-05T16:35:06.240Z,13.40
2022-11-05T16:37:49.152Z,8.80
2022-11-05T16:40:21.313Z,13.65
2022-11-05T16:42:51.472Z,14.27
2022-11-05T16:45:22.677Z,10.55
2022-11-05T16:47:50.805Z,18.77
2022-11-05T16:50:18.528Z,12.70
2022-11-05T16:52:47.280Z,15.50
2022-11-05T16:55:15.754Z,15.93
2022-11-05T16:57:48.017Z,24.40
2022-11-05T17:00:17.256Z,11.45
2022-11-05T17:02:46.434Z,13.93
2022-11-05T17:05:18.381Z,10.13
2022-11-05T17:07:47.242Z,13.63
2022-11-05T17:10:15.520Z,10.68
2022-11-05T17:12:44.556Z,14.27
2022-11-05T17:15:20.178Z,12.82
2022-11-05T17:17:48.381Z,13.75
2022-11-05T17:20:20.410Z,9.55
2022-11-05T17:22:53.987Z,11.00
2022-11-05T17:25:21.765Z,14.88
2022-11-05T17:27:49.571Z,10.85
2022-11-05T17:30:17.661Z,9.70
2022-11-05T17:32:45.918Z,9.25
2022-11-05T17:35:14.727Z,15.20
2022-11-05T17:37:43.113Z,15.50
2022-11-05T17:40:14.848Z,15.45
2022-11-05T17:42:42.672Z,12.68
2022-11-05T17:45:11.147Z,17.55
2022-11-05T17:47:39.845Z,8.98
2022-11-05T17:50:09.381Z,11.75
2022-11-05T17:52:37.153Z,10.20
2022-11-05T17:55:05.792Z,12.80
2022-11-05T17:57:35.149Z,11.75
2022-11-05T18:00:03.574Z,9.63
2022-11-05T18:02:38.439Z,11.70
2022-11-05T18:05:07.024Z,14.40
2022-11-05T18:07:38.758Z,9.90
2022-11-05T18:10:07.533Z,13.27
2022-11-05T18:12:35.643Z,15.25
2022-11-05T18:15:03.302Z,13.25
2022-11-05T18:17:31.301Z,12.57
2022-11-05T18:20:03.320Z,9.57
2022-11-05T18:22:34.065Z,10.55
2022-11-05T18:25:45.847Z,20.60
2022-11-05T18:28:42.046Z,16.67
2022-11-05T18:31:17.879Z,12.73
2022-11-05T18:33:46.799Z,11.90
2022-11-05T18:36:21.577Z,12.32
2022-11-05T18:38:49.940Z,12.55
2022-11-05T18:41:22.062Z,12.18
2022-11-05T18:43:52.608Z,13.95
2022-11-05T18:47:02.415Z,13.57
2022-11-05T18:49:40.268Z,13.82
2022-11-05T18:52:08.009Z,10.82
2022-11-05T18:54:37.949Z,9.02
2022-11-05T18:57:05.691Z,15.55
2022-11-05T18:59:38.731Z,11.23
2022-11-05T19:02:08.054Z,13.15
2022-11-05T19:04:36.869Z,15.50
2022-11-05T19:07:09.351Z,12.98
2022-11-05T19:09:37.784Z,15.50
2022-11-05T19:12:07.272Z,14.80
2022-11-05T19:14:35.985Z,15.48
2022-11-05T19:17:05.339Z,17.63
2022-11-05T19:19:33.585Z,16.05
2022-11-05T19:22:01.322Z,13.02
2022-11-05T19:24:31.396Z,16.63
2022-11-05T19:26:58.993Z,18.90
2022-11-05T19:29:28.737Z,10.25
2022-11-05T19:31:56.950Z,12.93
2022-11-05T19:34:24.982Z,13.20
2022-11-05T19:36:54.621Z,15.77
2022-11-05T19:39:22.417Z,15.63
2022-11-05T19:41:57.626Z,30.45
2022-11-05T19:44:31.681Z,17.38
2022-11-05T19:47:00.213Z,14.00
2022-11-05T19:49:28.633Z,16.63
2022-11-05T19:51:56.303Z,18.02
2022-11-05T19:54:24.620Z,16.23
2022-11-05T19:56:52.952Z,11.23
2022-11-05T19:59:21.880Z,18.15
2022-11-05T20:01:52.293Z,15.50
2022-11-05T20:06:53.425Z,15.73
2022-11-05T20:09:22.990Z,15.23
2022-11-05T20:11:54.001Z,15.18
2022-11-05T20:14:24.762Z,14.90
2022-11-05T20:16:56.554Z,12.88
2022-11-05T20:19:24.356Z,15.88
2022-11-05T20:21:54.563Z,11.40
2022-11-05T20:24:25.177Z,16.65
2022-11-05T20:26:57.347Z,15.80
2022-11-05T20:29:30.501Z,16.27
2022-11-05T20:32:05.677Z,21.63
2022-11-05T20:34:34.404Z,17.73
2022-11-05T20:37:02.494Z,13.10
2022-11-05T20:39:30.750Z,18.48
2022-11-05T20:42:02.316Z,16.77
2022-11-05T20:44:32.763Z,17.13
2022-11-05T20:47:04.269Z,17.45
2022-11-05T20:49:32.200Z,12.90
2022-11-05T20:52:00.806Z,13.80
2022-11-05T20:54:28.556Z,16.02
2022-11-05T20:56:56.121Z,12.23
2022-11-05T20:59:24.409Z,17.83
2022-11-05T21:01:52.978Z,17.92
2022-11-05T21:04:23.888Z,19.40
2022-11-05T21:06:53.594Z,20.55
2022-11-05T21:09:23.275Z,19.40
2022-11-05T21:12:09.515Z,21.55
2022-11-05T21:14:39.455Z,23.92
2022-11-05T21:17:07.820Z,19.50
2022-11-05T21:19:37.297Z,26.25
2022-11-05T21:22:05.651Z,24.20
2022-11-05T21:24:34.183Z,22.05
2022-11-05T21:27:03.488Z,15.00
2022-11-05T21:29:31.468Z,18.08
2022-11-05T21:32:00.043Z,17.63
2022-11-05T21:34:28.045Z,21.67
2022-11-05T21:36:55.814Z,16.88
2022-11-05T21:39:23.795Z,17.38
2022-11-05T21:41:52.804Z,21.25
2022-11-05T21:44:20.944Z,17.10
2022-11-05T21:46:48.706Z,15.98
2022-11-05T21:49:16.550Z,21.63
2022-11-05T21:52:03.077Z,20.25
2022-11-05T21:54:49.789Z,15.63
2022-11-05T21:57:38.870Z,22.52
2022-11-05T22:00:09.410Z,23.35
2022-11-05T22:02:37.394Z,13.85
2022-11-05T22:05:05.972Z,19.73
2022-11-05T22:07:36.195Z,17.58
2022-11-05T22:10:05.640Z,23.05
2022-11-05T22:12:33.397Z,24.93
2022-11-05T22:15:02.532Z,18.02
2022-11-05T22:17:31.267Z,16.98
2022-11-05T22:20:00.031Z,14.75
2022-11-05T22:22:27.908Z,16.45
2022-11-05T22:25:05.012Z,14.90
2022-11-05T22:27:39.444Z,16.73
2022-11-05T22:30:07.313Z,16.95
2022-11-05T22:32:35.063Z,14.80
2022-11-05T22:35:02.657Z,14.60
2022-11-05T22:37:32.971Z,15.05
2022-11-05T22:40:01.813Z,18.13
2022-11-05T22:42:32.177Z,17.25
2022-11-05T22:45:03.071Z,19.45
2022-11-05T22:47:32.817Z,17.92
2022-11-05T22:50:01.536Z,20.75
2022-11-05T22:52:29.994Z,15.02
2022-11-05T22:54:58.035Z,17.88
2022-11-05T22:57:25.765Z,18.75
2022-11-05T22:59:56.169Z,15.00
2022-11-05T23:02:24.267Z,16.25
2022-11-05T23:04:52.956Z,15.27
2022-11-05T23:07:40.866Z,16.60
2022-11-05T23:10:28.903Z,13.57
2022-11-05T23:12:58.056Z,17.25
2022-11-05T23:15:47.360Z,14.57
2022-11-05T23:18:34.847Z,14.68
2022-11-05T23:21:23.215Z,11.23
2022-11-05T23:24:06.730Z,20.73
2022-11-05T23:26:50.816Z,20.05
2022-11-05T23:29:26.810Z,20.83
2022-11-05T23:32:14.763Z,17.75
2022-11-05T23:34:42.787Z,21.02
2022-11-05T23:37:31.842Z,17.38
2022-11-05T23:40:01.930Z,24.02
2022-11-05T23:42:55.015Z,24.90
2022-11-05T23:45:41.253Z,13.48
2022-11-05T23:48:20.212Z,20.92
2022-11-05T23:51:08.657Z,12.18
2022-11-05T23:53:41.647Z,20.23
2022-11-05T23:56:10.613Z,17.55
2022-11-05T23:58:38.920Z,15.88
